Terminal Aerodrome Forecast
Issued by NWS

Home | Current Version | Previous Version | Text Only | Print | Product List | Glossary On
Versions: 1 2 3 4 5 6 7 8 9 10 11 12 13 14 15 16 17 18 19 20 21 22 23 24 25 26 27
000
FTUS41 KOKX 212033 AAA
TAFTEB
TAF AMD
KTEB 212033Z 2121/2224 25005KT P6SM BKN040
     FM220200 VRB03KT P6SM BKN025
     FM220600 VRB02KT P6SM VCSH BKN012
     FM221100 VRB02KT 4SM -DZ BR BKN008 OVC025
     FM221700 VRB03KT 4SM BR BKN015 OVC025
     FM222300 07003KT P6SM BKN050=

USA.gov is the U.S. government's official web portal to all federal, state and local government web resources and services.